WilderneSS Discoverer — WDF7009 — position and weather

sailwx.info

Track history (hours):
 
Tides and Currents Weather Stations Pressure Air Temp Water Temp Dewpoint Dewpoint Depression Visibility Wind Speed Wind Dir Waves Ship Positions

WilderneSS Discoverer

Owner: InnerSea Discoveries, Seattle, WA. More information available from US FCC via Universal Licensing System and Coast Guard Vessel Documentation Center.

Last reported at 2018-Jul-21 05:39 UTC. Time now 2018-Jul-22 04:58 UTC.
Position N 58°13' W 135°23'.

Length 52 m; draft 2.3 m.

Type: Passenger vessel. MMSI: 367480140.

Date/timePositionNaut miles runAvg speedWind from/ knotsBaromVisibWave heightAir tempDewpointWater temp
2018-Jul-21 05:39N 58°13' W 135°23'210.1
2018-Jul-21 05:29N 58°14' W 135°26'5 9.9
2018-Jul-21 04:59N 58°16' W 135°35'510.1
2018-Jul-21 04:30N 58°18' W 135°43'5 9.5
2018-Jul-21 04:00N 58°20' W 135°52'4 8.4
2018-Jul-21 03:30N 58°22' W 135°58'3 7.0
2018-Jul-21 03:00N 58°26' W 135°56'2 4.2
2018-Jul-21 02:29N 58°27' W 135°53'0 0.0
2018-Jul-21 01:59N 58°27' W 135°53'0 0.0
2018-Jul-21 01:29N 58°27' W 135°53'0 0.0
2018-Jul-21 00:59N 58°27' W 135°53'0 0.0
2018-Jul-21 00:29N 58°27' W 135°53'0 0.0
2018-Jul-21 00:00N 58°27' W 135°53'0 0.0
2018-Jul-20 23:30N 58°27' W 135°53'3 5.7
2018-Jul-20 23:00N 58°26' W 135°58'5 9.3
2018-Jul-20 22:30N 58°30' W 136°04'510.5
2018-Jul-20 22:00N 58°35' W 136°03'3 6.7
2018-Jul-20 21:30N 58°39' W 136°03'4 7.5
2018-Jul-20 21:00N 58°41' W 136°08'5 9.6
2018-Jul-20 20:30N 58°44' W 136°15'6 0.7
2018-Jul-20 11:46N 58°47' W 136°26'3 9.2
2018-Jul-20 11:29N 58°45' W 136°23'4 9.1
2018-Jul-20 11:00N 58°41' W 136°19'5 9.4
2018-Jul-20 10:30N 58°37' W 136°13'4 8.8
2018-Jul-20 10:00N 58°34' W 136°08'4 8.4
2018-Jul-20 09:30N 58°30' W 136°04'3 6.8
2018-Jul-20 09:00N 58°27' W 136°02'3 5.4
2018-Jul-20 08:30N 58°25' W 135°60'3 6.3
2018-Jul-20 08:00N 58°22' W 135°58'3 5.3
2018-Jul-20 07:30N 58°21' W 135°53'3 6.3
2018-Jul-20 07:00N 58°19' W 135°58'3 6.0
2018-Jul-20 06:30N 58°20' W 135°53'1 2.8
2018-Jul-20 06:00N 58°20' W 135°50'3 6.0
2018-Jul-20 05:30N 58°18' W 135°53'2 4.8
2018-Jul-20 05:00N 58°18' W 135°58'4 8.2
2018-Jul-20 04:29N 58°20' W 135°51'2 5.0
2018-Jul-20 04:00N 58°22' W 135°48'2 3.7
2018-Jul-20 03:30N 58°22' W 135°45'1 2.2
2018-Jul-20 03:00N 58°23' W 135°43'3 7.0
2018-Jul-20 02:30N 58°21' W 135°49'5 9.7
2018-Jul-20 02:00N 58°18' W 135°56'511.1
2018-Jul-20 01:31N 58°15' W 136°05'510.1
2018-Jul-20 00:59N 58°14' W 136°15'3 2.9
2018-Jul-20 00:00N 58°12' W 136°18'2 0.2 210 / 101026.0 5.4 15.0 8.9
2018-Jul-19 13:09N 58°14' W 136°19'1 7.7
2018-Jul-19 13:00N 58°14' W 136°17'6 8.3
2018-Jul-19 12:19N 58°15' W 136°07'2 7.0
2018-Jul-19 12:00N 58°15' W 136°03'4 8.0
2018-Jul-19 11:30N 58°17' W 135°55'4 7.5
2018-Jul-19 11:00N 58°18' W 135°49'4 8.7
2018-Jul-19 10:30N 58°17' W 135°41'5 8.3
2018-Jul-19 09:54N 58°15' W 135°32'3 8.8
2018-Jul-19 09:30N 58°13' W 135°26'26 1.6
2018-Jul-18 18:00N 57°48' W 135°36'75 3.1 040 / 71021.0 5.4 14.4 15.0
2018-Jul-17 18:00N 56°54' W 134°00'60 1.4 1017.9 0.5 11.1 9.4
2018-Jul-16 00:00N 57°24' W 135°36'18 0.4 160 / 51018.0 2.2 12.2 8.9
2018-Jul-14 00:00N 57°06' W 135°30'7 1.1 270 / 131028.0 5.4 17.8 13.3
2018-Jul-13 18:00N 57°12' W 135°36'0 0.0 1028.1 5.4 16.1 11.7
2018-Jul-13 00:00N 57°12' W 135°36'7 1.1 310 / 141025.0 5.4 16.1 14.4
2018-Jul-12 18:00N 57°18' W 135°42'18 0.8 320 / 31024.0 5.4 12.8 12.8
2018-Jul-11 18:00N 57°36' W 135°36'7725.8 150 / 61022.0 5.4 12.2 12.8
2018-Jul-11 15:00N 57°30' W 138°00'   270 / 51022.0 5.4 12.2 13.3
Track history (hours):
 
Tides and Currents Weather Stations Pressure Air Temp Water Temp Dewpoint Dewpoint Depression Visibility Wind Speed Wind Dir Waves Ship Positions

WilderneSS Discoverer

Owner: InnerSea Discoveries, Seattle, WA. More information available from US FCC via Universal Licensing System and Coast Guard Vessel Documentation Center.

Last reported at 2018-Jul-21 05:39 UTC. Time now 2018-Jul-22 04:58 UTC.
Position N 58°13' W 135°23'.

Length 52 m; draft 2.3 m.

Type: Passenger vessel. MMSI: 367480140.

Date/timePositionNaut miles runAvg speedWind from/ knotsBaromVisibWave heightAir tempDewpointWater temp
2018-Jul-21 05:39N 58°13' W 135°23'210.1
2018-Jul-21 05:29N 58°14' W 135°26'5 9.9
2018-Jul-21 04:59N 58°16' W 135°35'510.1
2018-Jul-21 04:30N 58°18' W 135°43'5 9.5
2018-Jul-21 04:00N 58°20' W 135°52'4 8.4
2018-Jul-21 03:30N 58°22' W 135°58'3 7.0
2018-Jul-21 03:00N 58°26' W 135°56'2 4.2
2018-Jul-21 02:29N 58°27' W 135°53'0 0.0
2018-Jul-21 01:59N 58°27' W 135°53'0 0.0
2018-Jul-21 01:29N 58°27' W 135°53'0 0.0
2018-Jul-21 00:59N 58°27' W 135°53'0 0.0
2018-Jul-21 00:29N 58°27' W 135°53'0 0.0
2018-Jul-21 00:00N 58°27' W 135°53'0 0.0
2018-Jul-20 23:30N 58°27' W 135°53'3 5.7
2018-Jul-20 23:00N 58°26' W 135°58'5 9.3
2018-Jul-20 22:30N 58°30' W 136°04'510.5
2018-Jul-20 22:00N 58°35' W 136°03'3 6.7
2018-Jul-20 21:30N 58°39' W 136°03'4 7.5
2018-Jul-20 21:00N 58°41' W 136°08'5 9.6
2018-Jul-20 20:30N 58°44' W 136°15'6 0.7
2018-Jul-20 11:46N 58°47' W 136°26'3 9.2
2018-Jul-20 11:29N 58°45' W 136°23'4 9.1
2018-Jul-20 11:00N 58°41' W 136°19'5 9.4
2018-Jul-20 10:30N 58°37' W 136°13'4 8.8
2018-Jul-20 10:00N 58°34' W 136°08'4 8.4
2018-Jul-20 09:30N 58°30' W 136°04'3 6.8
2018-Jul-20 09:00N 58°27' W 136°02'3 5.4
2018-Jul-20 08:30N 58°25' W 135°60'3 6.3
2018-Jul-20 08:00N 58°22' W 135°58'3 5.3
2018-Jul-20 07:30N 58°21' W 135°53'3 6.3
2018-Jul-20 07:00N 58°19' W 135°58'3 6.0
2018-Jul-20 06:30N 58°20' W 135°53'1 2.8
2018-Jul-20 06:00N 58°20' W 135°50'3 6.0
2018-Jul-20 05:30N 58°18' W 135°53'2 4.8
2018-Jul-20 05:00N 58°18' W 135°58'4 8.2
2018-Jul-20 04:29N 58°20' W 135°51'2 5.0
2018-Jul-20 04:00N 58°22' W 135°48'2 3.7
2018-Jul-20 03:30N 58°22' W 135°45'1 2.2
2018-Jul-20 03:00N 58°23' W 135°43'3 7.0
2018-Jul-20 02:30N 58°21' W 135°49'5 9.7
2018-Jul-20 02:00N 58°18' W 135°56'511.1
2018-Jul-20 01:31N 58°15' W 136°05'510.1
2018-Jul-20 00:59N 58°14' W 136°15'3 2.9
2018-Jul-20 00:00N 58°12' W 136°18'2 0.2 210 / 101026.0 5.4 15.0 8.9
2018-Jul-19 13:09N 58°14' W 136°19'1 7.7
2018-Jul-19 13:00N 58°14' W 136°17'6 8.3
2018-Jul-19 12:19N 58°15' W 136°07'2 7.0
2018-Jul-19 12:00N 58°15' W 136°03'4 8.0
2018-Jul-19 11:30N 58°17' W 135°55'4 7.5
2018-Jul-19 11:00N 58°18' W 135°49'4 8.7
2018-Jul-19 10:30N 58°17' W 135°41'5 8.3
2018-Jul-19 09:54N 58°15' W 135°32'3 8.8
2018-Jul-19 09:30N 58°13' W 135°26'26 1.6
2018-Jul-18 18:00N 57°48' W 135°36'75 3.1 040 / 71021.0 5.4 14.4 15.0
2018-Jul-17 18:00N 56°54' W 134°00'60 1.4 1017.9 0.5 11.1 9.4
2018-Jul-16 00:00N 57°24' W 135°36'18 0.4 160 / 51018.0 2.2 12.2 8.9
2018-Jul-14 00:00N 57°06' W 135°30'7 1.1 270 / 131028.0 5.4 17.8 13.3
2018-Jul-13 18:00N 57°12' W 135°36'0 0.0 1028.1 5.4 16.1 11.7
2018-Jul-13 00:00N 57°12' W 135°36'7 1.1 310 / 141025.0 5.4 16.1 14.4
2018-Jul-12 18:00N 57°18' W 135°42'18 0.8 320 / 31024.0 5.4 12.8 12.8
2018-Jul-11 18:00N 57°36' W 135°36'7725.8 150 / 61022.0 5.4 12.2 12.8
2018-Jul-11 15:00N 57°30' W 138°00'   270 / 51022.0 5.4 12.2 13.3

Dump ship's entire track history